createdAt,value
2022-12-23T06:24:54.638Z,75.85
2022-12-23T06:27:22.722Z,74.82
2022-12-23T06:29:51.034Z,74.32
2022-12-23T06:32:19.463Z,74.21
2022-12-23T06:34:50.204Z,74.23
2022-12-23T06:37:18.850Z,74.27
2022-12-23T06:39:52.465Z,74.29
2022-12-23T06:42:20.540Z,74.34
2022-12-23T06:44:50.372Z,74.18
2022-12-23T06:47:22.397Z,74.07
2022-12-23T06:49:50.664Z,73.79
2022-12-23T06:52:23.192Z,73.82
2022-12-23T06:54:51.575Z,73.45
2022-12-23T06:57:19.745Z,73.46
2022-12-23T06:59:47.716Z,73.25
2022-12-23T07:02:15.865Z,73.26
2022-12-23T07:04:44.049Z,72.98
2022-12-23T07:07:12.085Z,73.02
2022-12-23T07:09:40.027Z,72.90
2022-12-23T07:12:08.209Z,72.82
2022-12-23T07:14:43.728Z,72.87
2022-12-23T07:17:11.859Z,73.15
2022-12-23T07:19:41.769Z,73.26
2022-12-23T07:22:10.373Z,73.12
2022-12-23T07:24:38.676Z,72.75
2022-12-23T07:27:13.706Z,72.61
2022-12-23T07:29:41.796Z,72.30
2022-12-23T07:32:09.904Z,72.24
2022-12-23T07:34:38.129Z,72.02
2022-12-23T07:37:06.290Z,71.97
2022-12-23T07:39:34.979Z,71.88
2022-12-23T07:42:33.531Z,72.15
2022-12-23T07:44:51.288Z,72.22
2022-12-23T07:47:19.394Z,72.29
2022-12-23T07:49:47.423Z,72.37
2022-12-23T07:52:15.696Z,72.51
2022-12-23T07:54:43.865Z,72.82
2022-12-23T07:57:12.569Z,73.18
2022-12-23T07:59:40.626Z,73.45
2022-12-23T08:02:11.114Z,73.44
2022-12-23T08:04:44.237Z,73.19
2022-12-23T08:07:14.199Z,72.94
2022-12-23T08:09:42.255Z,72.87
2022-12-23T08:12:10.383Z,72.73
2022-12-23T08:14:38.335Z,72.48
2022-12-23T08:17:06.416Z,72.24
2022-12-23T08:19:34.587Z,72.14
2022-12-23T08:22:02.682Z,72.00
2022-12-23T08:24:30.604Z,71.95
2022-12-23T08:26:58.728Z,71.84
2022-12-23T08:29:30.069Z,71.95
2022-12-23T08:32:02.462Z,72.17
2022-12-23T08:34:30.502Z,72.14
2022-12-23T08:36:58.510Z,71.96
2022-12-23T08:39:26.683Z,71.69
2022-12-23T08:41:55.762Z,71.47
2022-12-23T08:44:27.142Z,71.10
2022-12-23T08:46:55.962Z,70.98
2022-12-23T08:49:24.063Z,70.86
2022-12-23T08:51:52.158Z,70.73
2022-12-23T08:54:20.693Z,70.49
2022-12-23T08:56:48.690Z,70.18
2022-12-23T08:59:19.708Z,70.05
2022-12-23T09:01:48.540Z,69.90
2022-12-23T09:04:17.094Z,69.81
2022-12-23T09:06:45.627Z,69.33
2022-12-23T09:09:15.680Z,69.11
2022-12-23T09:11:44.665Z,68.06
2022-12-23T09:14:12.873Z,67.50
2022-12-23T09:16:41.057Z,67.51
2022-12-23T09:19:09.386Z,67.47
2022-12-23T09:21:37.557Z,66.77
2022-12-23T09:24:06.232Z,66.53
2022-12-23T09:26:34.345Z,65.97
2022-12-23T09:29:02.401Z,66.12
2022-12-23T09:31:36.261Z,66.08
2022-12-23T09:34:06.164Z,66.13
2022-12-23T09:36:34.518Z,66.22
2022-12-23T09:39:02.692Z,66.59
2022-12-23T09:41:48.555Z,66.31
2022-12-23T09:44:38.968Z,66.17
2022-12-23T09:47:11.337Z,66.18
2022-12-23T09:49:48.017Z,65.73
2022-12-23T09:52:22.042Z,65.56
2022-12-23T09:54:53.632Z,65.31
2022-12-23T09:57:24.500Z,65.13
2022-12-23T10:00:15.322Z,65.05
2022-12-23T10:03:02.199Z,65.07
2022-12-23T10:05:40.037Z,64.98
2022-12-23T10:08:23.888Z,64.83
2022-12-23T10:11:00.488Z,65.06
2022-12-23T10:13:49.935Z,65.23
2022-12-23T10:16:27.387Z,65.19
2022-12-23T10:19:09.622Z,65.29
2022-12-23T10:21:48.443Z,64.96
2022-12-23T10:24:29.771Z,64.72
2022-12-23T10:27:01.353Z,64.73
2022-12-23T10:29:32.563Z,64.84
2022-12-23T10:32:06.491Z,64.97
2022-12-23T10:34:42.411Z,65.17
2022-12-23T10:37:13.013Z,65.37
2022-12-23T10:40:21.050Z,65.48
2022-12-23T10:43:15.105Z,65.65
2022-12-23T10:45:57.948Z,65.87
2022-12-23T10:48:52.598Z,65.81
2022-12-23T10:51:30.206Z,65.91
2022-12-23T10:54:11.743Z,65.94
2022-12-23T10:56:40.419Z,65.99
2022-12-23T10:59:14.157Z,66.25
2022-12-23T11:01:50.009Z,66.48
2022-12-23T11:04:23.209Z,66.30
2022-12-23T11:07:10.854Z,66.16
2022-12-23T11:09:40.511Z,66.56
2022-12-23T11:12:11.474Z,67.14
2022-12-23T11:14:51.847Z,66.97
2022-12-23T11:17:27.964Z,66.98
2022-12-23T11:20:11.548Z,66.88
2022-12-23T11:23:00.015Z,66.86
2022-12-23T11:25:30.209Z,66.88
2022-12-23T11:28:02.833Z,66.82
2022-12-23T11:30:33.114Z,67.01
2022-12-23T11:33:01.651Z,67.39
2022-12-23T11:35:34.794Z,67.51
2022-12-23T11:38:04.027Z,67.03
2022-12-23T11:40:40.544Z,66.69
2022-12-23T11:43:15.067Z,66.59
2022-12-23T11:45:47.131Z,66.52
2022-12-23T11:48:30.410Z,66.64
2022-12-23T11:51:03.205Z,66.61
2022-12-23T11:53:32.348Z,66.57
2022-12-23T11:56:07.061Z,66.43
2022-12-23T11:58:44.769Z,66.17
2022-12-23T12:01:20.242Z,66.37
2022-12-23T12:03:59.364Z,66.82
2022-12-23T12:06:28.227Z,67.04
2022-12-23T12:08:56.627Z,67.30
2022-12-23T12:11:32.024Z,67.46
2022-12-23T12:14:05.467Z,67.60
2022-12-23T12:16:45.567Z,67.35
2022-12-23T12:19:24.679Z,67.62
2022-12-23T12:21:56.799Z,68.19
2022-12-23T12:24:33.373Z,68.12
2022-12-23T12:27:03.835Z,68.13
2022-12-23T12:29:34.693Z,67.98
2022-12-23T12:32:04.400Z,67.95
2022-12-23T12:34:42.340Z,68.31
2022-12-23T12:37:13.490Z,68.19
2022-12-23T12:39:44.056Z,68.48
2022-12-23T12:42:17.704Z,68.73
2022-12-23T12:45:20.947Z,68.76
2022-12-23T12:48:18.718Z,68.70
2022-12-23T12:51:23.173Z,68.28
2022-12-23T12:54:23.059Z,68.22
2022-12-23T12:56:56.425Z,68.15
2022-12-23T12:59:29.739Z,68.24
2022-12-23T13:02:22.617Z,68.12
2022-12-23T13:04:53.523Z,68.14
2022-12-23T13:07:33.893Z,67.98
2022-12-23T13:10:22.122Z,68.29
2022-12-23T13:12:55.298Z,68.05
2022-12-23T13:15:54.085Z,68.19
2022-12-23T13:18:38.913Z,68.14
2022-12-23T13:21:24.838Z,68.09
2022-12-23T13:24:14.830Z,68.21
2022-12-23T13:26:48.828Z,68.42
2022-12-23T13:29:58.296Z,68.81
2022-12-23T13:32:49.415Z,69.15
2022-12-23T13:35:33.833Z,69.35
2022-12-23T13:38:25.077Z,68.98
2022-12-23T13:41:21.301Z,69.01
2022-12-23T13:43:54.589Z,69.08
2022-12-23T13:46:41.342Z,69.12
2022-12-23T13:49:46.729Z,69.06
2022-12-23T13:52:29.707Z,68.99
2022-12-23T13:55:24.962Z,69.51
2022-12-23T13:58:31.969Z,69.45
2022-12-23T14:01:02.996Z,69.57
2022-12-23T14:03:36.215Z,69.79
2022-12-23T14:06:43.134Z,70.06
2022-12-23T14:09:16.188Z,70.24
2022-12-23T14:11:45.325Z,70.05
2022-12-23T14:14:23.581Z,69.69
2022-12-23T14:17:18.803Z,69.60
2022-12-23T14:20:13.409Z,69.44
2022-12-23T14:22:58.875Z,69.31
2022-12-23T14:25:43.947Z,69.34
2022-12-23T14:28:47.633Z,69.50
2022-12-23T14:31:40.040Z,69.56
2022-12-23T14:34:20.322Z,69.46
2022-12-23T14:37:23.767Z,69.49
2022-12-23T14:39:52.975Z,69.68
2022-12-23T14:42:47.538Z,69.67
2022-12-23T14:45:41.875Z,69.84
2022-12-23T14:48:34.860Z,69.89
2022-12-23T14:51:25.388Z,70.29
2022-12-23T14:53:53.941Z,70.59
2022-12-23T14:56:43.344Z,70.54
2022-12-23T14:59:32.541Z,70.67
2022-12-23T15:02:03.299Z,70.61
2022-12-23T15:04:46.304Z,70.73
2022-12-23T15:07:38.277Z,70.67
2022-12-23T15:10:08.412Z,70.81
2022-12-23T15:12:39.181Z,70.82
2022-12-23T15:15:20.670Z,71.08
2022-12-23T15:17:49.392Z,71.50
2022-12-23T15:20:22.645Z,71.47
2022-12-23T15:22:51.041Z,71.58
2022-12-23T15:25:18.911Z,71.54
2022-12-23T15:27:47.244Z,71.83
2022-12-23T15:30:16.235Z,71.80
2022-12-23T15:32:49.081Z,71.96
2022-12-23T15:35:25.744Z,72.04
2022-12-23T15:37:53.884Z,71.91
2022-12-23T15:40:27.192Z,71.91
2022-12-23T15:42:55.191Z,71.93
2022-12-23T15:45:23.160Z,71.85
2022-12-23T15:47:51.184Z,71.42
2022-12-23T15:50:19.849Z,71.14
2022-12-23T15:52:48.113Z,71.30
2022-12-23T15:55:30.799Z,71.93
2022-12-23T15:58:00.014Z,72.07
2022-12-23T16:00:41.121Z,72.07
2022-12-23T16:03:35.326Z,71.68
2022-12-23T16:06:24.415Z,71.87
2022-12-23T16:09:03.061Z,71.95
2022-12-23T16:11:51.624Z,72.34
2022-12-23T16:14:36.602Z,72.27
2022-12-23T16:17:07.831Z,72.62
2022-12-23T16:19:41.772Z,72.74
2022-12-23T16:22:29.103Z,72.64
2022-12-23T16:24:58.803Z,72.32
2022-12-23T16:27:42.098Z,72.21
2022-12-23T16:30:22.358Z,72.56
2022-12-23T16:32:54.620Z,72.39
2022-12-23T16:35:41.915Z,72.32
2022-12-23T16:38:17.898Z,72.38
2022-12-23T16:40:48.413Z,72.11
2022-12-23T16:43:18.023Z,72.27
2022-12-23T16:45:50.317Z,72.33
2022-12-23T16:48:39.328Z,72.39
2022-12-23T16:51:09.476Z,72.59
2022-12-23T16:53:37.646Z,72.29
2022-12-23T16:56:16.911Z,72.81
2022-12-23T16:58:45.587Z,73.59
2022-12-23T17:01:16.223Z,73.80
2022-12-23T17:03:44.424Z,73.25
2022-12-23T17:06:16.588Z,72.93
2022-12-23T17:08:44.771Z,72.80
2022-12-23T17:11:19.053Z,73.04
2022-12-23T17:13:47.219Z,72.70
2022-12-23T17:16:21.941Z,72.71
2022-12-23T17:18:53.334Z,72.64
2022-12-23T17:21:24.907Z,72.77
2022-12-23T17:23:56.795Z,73.04
2022-12-23T17:26:24.838Z,73.33
2022-12-23T17:28:52.798Z,73.36
2022-12-23T17:31:26.496Z,73.34
2022-12-23T17:33:55.221Z,73.25
2022-12-23T17:36:23.304Z,73.22
2022-12-23T17:38:51.498Z,73.06
2022-12-23T17:41:30.975Z,72.95
2022-12-23T17:43:59.520Z,72.88
2022-12-23T17:46:27.552Z,73.15
2022-12-23T17:48:57.319Z,73.22
2022-12-23T17:51:26.552Z,72.99
2022-12-23T17:53:58.032Z,73.27
2022-12-23T17:56:28.309Z,73.26
2022-12-23T17:58:56.408Z,73.36
2022-12-23T18:01:30.014Z,73.59
2022-12-23T18:03:59.942Z,74.01
2022-12-23T18:06:29.175Z,73.76
2022-12-23T18:08:58.020Z,73.84
2022-12-23T18:11:42.017Z,74.06
2022-12-23T18:14:28.022Z,74.09
2022-12-23T18:16:56.340Z,73.82
2022-12-23T18:19:24.493Z,73.69
2022-12-23T18:21:52.640Z,73.52
2022-12-23T18:24:20.809Z,73.28
2022-12-23T18:26:48.972Z,73.24
2022-12-23T18:29:17.013Z,73.16
2022-12-23T18:31:52.130Z,73.18
2022-12-23T18:34:21.298Z,73.14
2022-12-23T18:36:51.953Z,73.50
2022-12-23T18:39:21.146Z,73.66
2022-12-23T18:41:49.211Z,73.58
2022-12-23T18:44:21.373Z,73.64
2022-12-23T18:46:50.316Z,73.76
2022-12-23T18:49:18.739Z,73.74
2022-12-23T18:51:47.037Z,73.96
2022-12-23T18:54:16.255Z,73.94
2022-12-23T18:56:44.731Z,74.12
2022-12-23T18:59:15.422Z,74.15
2022-12-23T19:01:43.544Z,74.54
2022-12-23T19:04:11.597Z,74.44
2022-12-23T19:06:40.346Z,74.61
2022-12-23T19:09:10.184Z,74.73
2022-12-23T19:11:38.114Z,74.70
2022-12-23T19:14:06.172Z,74.51
2022-12-23T19:16:34.330Z,74.60
2022-12-23T19:19:02.424Z,74.64
2022-12-23T19:21:30.443Z,74.78
2022-12-23T19:23:58.569Z,74.83
2022-12-23T19:26:26.552Z,74.94
2022-12-23T19:28:54.613Z,74.75
2022-12-23T19:31:23.343Z,74.55
2022-12-23T19:33:51.438Z,74.52
2022-12-23T19:36:24.294Z,74.36
2022-12-23T19:38:52.360Z,74.43
2022-12-23T19:41:20.408Z,74.53
2022-12-23T19:43:48.562Z,74.50
2022-12-23T19:46:17.031Z,74.57
2022-12-23T19:48:51.609Z,74.42
2022-12-23T19:51:19.570Z,74.34
2022-12-23T19:53:50.227Z,74.47
2022-12-23T19:56:22.108Z,74.70
2022-12-23T19:58:50.160Z,75.08
2022-12-23T20:01:21.092Z,75.35
2022-12-23T20:03:49.921Z,75.17
2022-12-23T20:06:27.067Z,74.79
2022-12-23T20:09:00.312Z,74.71
2022-12-23T20:11:31.981Z,74.42
2022-12-23T20:14:00.915Z,74.32
2022-12-23T20:16:29.951Z,74.12
2022-12-23T20:18:58.174Z,74.30
2022-12-23T20:21:26.184Z,74.29
2022-12-23T20:23:54.214Z,74.09
2022-12-23T20:26:23.921Z,74.02
2022-12-23T20:28:52.010Z,73.72
2022-12-23T20:31:22.844Z,73.64
2022-12-23T20:33:52.438Z,73.87
2022-12-23T20:36:23.075Z,74.15
2022-12-23T20:38:52.307Z,74.35
2022-12-23T20:41:23.877Z,74.12
2022-12-23T20:44:31.810Z,74.00
2022-12-23T20:46:40.729Z,73.82
2022-12-23T20:49:08.782Z,74.13
2022-12-23T20:51:36.817Z,73.90
2022-12-23T20:54:04.896Z,74.19
2022-12-23T20:56:32.894Z,74.29
2022-12-23T20:59:04.161Z,74.09
2022-12-23T21:01:38.188Z,74.23
2022-12-23T21:04:08.886Z,74.50
2022-12-23T21:06:37.312Z,74.64
2022-12-23T21:09:07.329Z,74.59
2022-12-23T21:11:38.582Z,74.50
2022-12-23T21:14:08.061Z,74.47
2022-12-23T21:16:37.965Z,74.66
2022-12-23T21:19:08.162Z,74.71
2022-12-23T21:21:36.273Z,74.75
2022-12-23T21:24:05.031Z,74.71
2022-12-23T21:26:34.713Z,74.62
2022-12-23T21:29:04.885Z,74.49
2022-12-23T21:31:35.326Z,74.64
2022-12-23T21:34:04.002Z,74.92
2022-12-23T21:36:34.565Z,74.95
2022-12-23T21:39:04.238Z,74.95
2022-12-23T21:41:38.193Z,74.82
2022-12-23T21:44:06.523Z,74.83
2022-12-23T21:46:34.867Z,75.13
2022-12-23T21:49:03.433Z,75.09
2022-12-23T21:51:39.587Z,74.82
2022-12-23T21:54:10.777Z,74.66
2022-12-23T21:56:40.177Z,74.85
2022-12-23T21:59:11.970Z,75.30
2022-12-23T22:01:40.997Z,75.42
2022-12-23T22:04:08.994Z,75.41
2022-12-23T22:06:40.309Z,75.36
2022-12-23T22:09:10.203Z,75.64
2022-12-23T22:11:38.680Z,75.81
2022-12-23T22:14:07.476Z,75.84
2022-12-23T22:16:36.206Z,75.88
2022-12-23T22:19:06.271Z,75.56
2022-12-23T22:21:35.610Z,75.36
2022-12-23T22:24:03.817Z,75.35
2022-12-23T22:26:33.057Z,75.59
2022-12-23T22:29:03.359Z,75.83
2022-12-23T22:31:33.859Z,75.72
2022-12-23T22:34:02.528Z,75.94
2022-12-23T22:36:31.810Z,75.77
2022-12-23T22:39:01.501Z,75.72
2022-12-23T22:41:30.600Z,75.74
2022-12-23T22:43:59.616Z,75.97
2022-12-23T22:46:28.193Z,75.93
2022-12-23T22:48:56.655Z,75.97
2022-12-23T22:51:31.692Z,75.88
2022-12-23T22:54:02.919Z,75.96
2022-12-23T22:56:30.999Z,75.52
2022-12-23T22:58:59.071Z,75.20
2022-12-23T23:01:29.529Z,75.26
2022-12-23T23:03:59.804Z,75.79
2022-12-23T23:06:33.093Z,75.37
2022-12-23T23:09:01.435Z,75.31
2022-12-23T23:11:29.911Z,75.57
2022-12-23T23:13:57.895Z,75.58
2022-12-23T23:16:26.809Z,75.77
2022-12-23T23:18:55.425Z,75.70
2022-12-23T23:21:23.532Z,75.52
2022-12-23T23:23:52.453Z,75.37
2022-12-23T23:26:21.339Z,75.38
2022-12-23T23:28:49.443Z,75.40
2022-12-23T23:31:41.350Z,75.53
2022-12-23T23:34:05.583Z,75.33
2022-12-23T23:36:34.046Z,75.48
2022-12-23T23:39:02.205Z,75.27
2022-12-23T23:41:30.228Z,75.52
2022-12-23T23:43:58.304Z,75.63
2022-12-23T23:46:26.369Z,75.82
2022-12-23T23:48:54.366Z,75.70
2022-12-23T23:51:22.294Z,75.66
2022-12-23T23:53:50.276Z,75.60
2022-12-23T23:56:24.811Z,75.74
2022-12-23T23:58:54.350Z,75.58
